Makawao, HI (96768)

2:54 PM HST on October 24, 2014 (GMT -1000)
Up Country Maui | Change Station
CLOSE
Current Station
Personal Weather Station
Location: Makawao, HI
Elevation: 1562 ft
Nearby Weather Stations

Elev 1562 ft 20.86 °N, 156.32 °W | Updated 4 minutes ago

Scattered Clouds
Scattered Clouds
81.0 °F
Feels Like 84 °F
N
10.0
Wind Variable Wind from East
Gusts 21.0 mph

Today
High -- | Low -- °F
--% Chance of Precip.
Yesterday
High -- | Low -- °F
Precip. -- in
6:24 AM 5:54 PM
New Moon, 1% visible
Pressure 29.98 in
Visibility 10.0 miles
Clouds Few 3000 ft
Scattered Clouds 7000 ft
Heat Index 84 °F
Dew Point 68 °F
Humidity 64%
Rainfall 0.15 in
Snow Depth Not available.
UV 2.2 out of 12
Pollen Not available.
Air Quality Not available.
Flu Activity Sporadic
METAR PHOG 242354Z 07016G25KT 10SM FEW030 SCT070 31/20 A2996 RMK AO2 PK WND 07026/2319 SLP151 T03060200 10311 20239 56024 $

More Conditions Fewer Conditions

Pressure 29.98 in
Visibility 10.0 miles
Clouds Few 3000 ft
Scattered Clouds 7000 ft
Heat Index 84 °F
Dew Point 68 °F
Humidity 64%
Rainfall 0.15 in
Snow Depth Not available.
UV 2.2 out of 12
Pollen Not available.
Air Quality Not available.
Flu Activity Sporadic
METAR PHOG 242354Z 07016G25KT 10SM FEW030 SCT070 31/20 A2996 RMK AO2 PK WND 07026/2319 SLP151 T03060200 10311 20239 56024 $

More Conditions Fewer Conditions

10-Day Weather Forecast

Almanac

Astronomy

Oct. 24, 2014 Rise Set
Actual Time 6:24 AM HST 5:54 PM HST
Civil Twilight 6:01 AM HST 6:16 PM HST
Nautical Twilight 5:35 AM HST 6:43 PM HST
Astronomical Twilight 5:09 AM HST 7:08 PM HST
Moon 7:09 AM HST (10/24) 6:48 PM HST (10/24)
Length of Visible Light 12h 15m
Length of Day
11h 30m
Tomorrow will be 1m 5s shorter.
New Moon, 1% of the Moon is Illuminated
Today
New Moon
Oct 30
First Quarter
Nov 6
Full
Nov 14
Last Quarter
Nov 22
New

Today's Extremes

State Highs State Lows

Community

WunderPhotos

Upload Photos

1,764,735 photos uploaded!

WunderBlogs® & News

Nearby

Snow Depth

Station Depth Elevation
No new snow has been reported.

Earthquake Activity

City Distance Mag. Time & Date
No recent earthquake activity has been reported nearby.
Minimum magnitude displayed is 2.5.

Coastal Water Temperatures

Place Temperature
No Stations Reporting

Nearby Weather Stations